Aérodrome :
LOGIN :

S'inscrire | Disclaimer

   EN    FR    IT 

 










Légende :    VFR   VFR Marginal   IFR   IFR Intensif   IFR Très Intensif
Visi : 
Plafond : 
>= 8 km
>= 3000ft
5 à 8 km
1000 à 3000 ft
1500m à 5 km
500 à 1000 ft
800 à 1500m
200 à 500 ft
< 800m
< 200 ft
Symboles :   Orages  Brouillard  Fortes neiges  Fortes précipitations  Vent > 20 kt
SIGMETs :   Divers  Orages  Givrage  Turbulence  Onde Orograph.  Cendres Volcan.






- Altitude de l'aérodrome : 157 ft
- Code IATA : LIL


LFQQ - Lille Lesquin

DERNIER METAR :
  • 071300Z AUTO 22007KT 9999 OVC037 10/06 Q1015 NOSIG

METARs EXPIRÉS :
  • 071230Z AUTO 23007KT 9999 OVC041 10/05 Q1015 NOSIG
  • 071200Z AUTO 23008KT 9999 OVC041 10/05 Q1015 NOSIG
  • 071130Z AUTO 22008KT 9999 OVC040 10/06 Q1015 NOSIG
  • 071100Z AUTO 24008KT 9999 OVC040 10/06 Q1015 NOSIG
  • 071030Z AUTO 23005KT 9999 OVC040 09/06 Q1015 NOSIG

TAF TAF LFQQ
Valide du 07 à 12h jusqu'au 08 à 18h UTC


071100Z 0712/0818 25013KT 9999 BKN025
TEMPO 0721/0802 BKN008
BECMG 0802/0804 19017KT BKN008 OVC025
TEMPO 0805/0809 19020G30KT 3000 RA OVC006
BECMG 0809/0811 25020G30KT SCT030
TEMPO 0811/0818 25020G40KT 4000 SHRA BKN030TCU
ATIS : +33 3 20 16 19 54



MET'MAP, la Météo Aéronautique d'un coup d'oeil ! - Copyright ORBIFLY Décembre 2007 - Disclaimer

ORBIFLY MET'MAP TEAM :

Programmation & Développement : Alexandra Zaïnal
Sur une idée originale de : Baudouin d'Aumeries
Assistance à la programmation : Marc-Olivier Méhu
Soutien technique & logistique : Manuel Goepfert

Contact : metmap@orbifly.com




SOURCES & CREDITS :

   NOAA